sensor_id;sensor_type;location;lat;lon;timestamp;temperature;humidity
65291;SHT30;51893;59.754;10.110;2023-03-14T00:00:11;-1.48;82.48
65291;SHT30;51893;59.754;10.110;2023-03-14T00:03:02;-1.43;82.29
65291;SHT30;51893;59.754;10.110;2023-03-14T00:05:30;-1.38;82.30
65291;SHT30;51893;59.754;10.110;2023-03-14T00:07:58;-1.34;82.32
65291;SHT30;51893;59.754;10.110;2023-03-14T00:10:26;-1.28;82.23
65291;SHT30;51893;59.754;10.110;2023-03-14T00:12:56;-1.31;82.20
65291;SHT30;51893;59.754;10.110;2023-03-14T00:15:24;-1.30;82.13
65291;SHT30;51893;59.754;10.110;2023-03-14T00:17:55;-1.23;81.94
65291;SHT30;51893;59.754;10.110;2023-03-14T00:20:24;-1.20;81.62
65291;SHT30;51893;59.754;10.110;2023-03-14T00:22:52;-1.15;81.43
65291;SHT30;51893;59.754;10.110;2023-03-14T00:25:20;-1.08;81.25
65291;SHT30;51893;59.754;10.110;2023-03-14T00:27:50;-1.07;80.98
65291;SHT30;51893;59.754;10.110;2023-03-14T00:30:19;-1.10;80.87
65291;SHT30;51893;59.754;10.110;2023-03-14T00:32:47;-1.22;80.60
65291;SHT30;51893;59.754;10.110;2023-03-14T00:35:15;-1.35;80.76
65291;SHT30;51893;59.754;10.110;2023-03-14T00:37:44;-1.34;80.94
65291;SHT30;51893;59.754;10.110;2023-03-14T00:40:12;-1.30;81.16
65291;SHT30;51893;59.754;10.110;2023-03-14T00:42:41;-1.25;81.49
65291;SHT30;51893;59.754;10.110;2023-03-14T00:45:08;-1.21;81.43
65291;SHT30;51893;59.754;10.110;2023-03-14T00:47:38;-1.20;81.52
65291;SHT30;51893;59.754;10.110;2023-03-14T00:50:07;-1.15;81.51
65291;SHT30;51893;59.754;10.110;2023-03-14T00:52:37;-1.10;81.40
65291;SHT30;51893;59.754;10.110;2023-03-14T00:55:06;-1.05;81.41
65291;SHT30;51893;59.754;10.110;2023-03-14T00:57:34;-0.99;81.17
65291;SHT30;51893;59.754;10.110;2023-03-14T01:00:02;-1.03;81.01
65291;SHT30;51893;59.754;10.110;2023-03-14T01:02:35;-1.12;81.11
65291;SHT30;51893;59.754;10.110;2023-03-14T01:05:06;-1.17;81.32
65291;SHT30;51893;59.754;10.110;2023-03-14T01:07:35;-1.15;81.45
65291;SHT30;51893;59.754;10.110;2023-03-14T01:10:04;-1.21;81.64
65291;SHT30;51893;59.754;10.110;2023-03-14T01:12:33;-1.15;81.66
65291;SHT30;51893;59.754;10.110;2023-03-14T01:15:03;-1.14;81.48
65291;SHT30;51893;59.754;10.110;2023-03-14T01:17:31;-1.15;81.30
65291;SHT30;51893;59.754;10.110;2023-03-14T01:19:59;-1.17;81.25
65291;SHT30;51893;59.754;10.110;2023-03-14T01:22:28;-1.24;81.17
65291;SHT30;51893;59.754;10.110;2023-03-14T01:24:56;-1.31;81.15
65291;SHT30;51893;59.754;10.110;2023-03-14T01:27:25;-1.32;81.16
65291;SHT30;51893;59.754;10.110;2023-03-14T01:29:53;-1.34;81.09
65291;SHT30;51893;59.754;10.110;2023-03-14T01:32:24;-1.34;81.07
65291;SHT30;51893;59.754;10.110;2023-03-14T01:34:52;-1.36;81.03
65291;SHT30;51893;59.754;10.110;2023-03-14T01:37:21;-1.55;81.41
65291;SHT30;51893;59.754;10.110;2023-03-14T01:39:49;-1.70;81.73
65291;SHT30;51893;59.754;10.110;2023-03-14T01:42:17;-1.78;81.89
65291;SHT30;51893;59.754;10.110;2023-03-14T01:44:59;-1.87;82.06
65291;SHT30;51893;59.754;10.110;2023-03-14T01:47:29;-1.89;82.10
65291;SHT30;51893;59.754;10.110;2023-03-14T01:50:01;-1.93;82.22
65291;SHT30;51893;59.754;10.110;2023-03-14T01:52:42;-1.98;82.30
65291;SHT30;51893;59.754;10.110;2023-03-14T01:55:15;-1.97;82.19
65291;SHT30;51893;59.754;10.110;2023-03-14T01:57:58;-1.96;81.95
65291;SHT30;51893;59.754;10.110;2023-03-14T02:00:35;-2.02;81.66
65291;SHT30;51893;59.754;10.110;2023-03-14T02:03:05;-2.05;81.50
65291;SHT30;51893;59.754;10.110;2023-03-14T02:05:40;-2.18;81.59
65291;SHT30;51893;59.754;10.110;2023-03-14T02:08:11;-2.28;81.61
65291;SHT30;51893;59.754;10.110;2023-03-14T02:10:45;-2.36;81.61
65291;SHT30;51893;59.754;10.110;2023-03-14T02:13:17;-2.41;81.61
65291;SHT30;51893;59.754;10.110;2023-03-14T02:15:49;-2.46;81.60
65291;SHT30;51893;59.754;10.110;2023-03-14T02:18:18;-2.50;81.51
65291;SHT30;51893;59.754;10.110;2023-03-14T02:20:55;-2.54;81.67
65291;SHT30;51893;59.754;10.110;2023-03-14T02:23:42;-2.53;81.88
65291;SHT30;51893;59.754;10.110;2023-03-14T02:26:38;-2.46;82.10
65291;SHT30;51893;59.754;10.110;2023-03-14T02:29:12;-2.37;82.27
65291;SHT30;51893;59.754;10.110;2023-03-14T02:31:40;-2.27;82.34
65291;SHT30;51893;59.754;10.110;2023-03-14T02:34:08;-2.23;82.26
65291;SHT30;51893;59.754;10.110;2023-03-14T02:36:36;-2.24;82.18
65291;SHT30;51893;59.754;10.110;2023-03-14T02:39:07;-2.22;82.17
65291;SHT30;51893;59.754;10.110;2023-03-14T02:41:49;-2.18;82.07
65291;SHT30;51893;59.754;10.110;2023-03-14T02:44:18;-2.12;81.95
65291;SHT30;51893;59.754;10.110;2023-03-14T02:46:48;-2.15;81.69
65291;SHT30;51893;59.754;10.110;2023-03-14T02:49:16;-2.25;81.53
65291;SHT30;51893;59.754;10.110;2023-03-14T02:51:46;-2.25;81.54
65291;SHT30;51893;59.754;10.110;2023-03-14T02:54:15;-2.26;81.49
65291;SHT30;51893;59.754;10.110;2023-03-14T02:56:44;-2.31;81.55
65291;SHT30;51893;59.754;10.110;2023-03-14T02:59:11;-2.34;81.70
65291;SHT30;51893;59.754;10.110;2023-03-14T03:01:39;-2.31;81.80
65291;SHT30;51893;59.754;10.110;2023-03-14T03:04:08;-2.23;81.80
65291;SHT30;51893;59.754;10.110;2023-03-14T03:06:36;-2.15;81.70
65291;SHT30;51893;59.754;10.110;2023-03-14T03:09:04;-2.08;81.63
65291;SHT30;51893;59.754;10.110;2023-03-14T03:11:33;-2.04;81.64
65291;SHT30;51893;59.754;10.110;2023-03-14T03:14:01;-2.00;81.66
65291;SHT30;51893;59.754;10.110;2023-03-14T03:16:29;-1.98;81.62
65291;SHT30;51893;59.754;10.110;2023-03-14T03:18:57;-2.01;81.59
65291;SHT30;51893;59.754;10.110;2023-03-14T03:21:25;-1.97;81.53
65291;SHT30;51893;59.754;10.110;2023-03-14T03:23:53;-1.99;81.35
65291;SHT30;51893;59.754;10.110;2023-03-14T03:26:24;-2.00;81.29
65291;SHT30;51893;59.754;10.110;2023-03-14T03:28:52;-2.01;81.36
65291;SHT30;51893;59.754;10.110;2023-03-14T03:31:23;-1.98;81.20
65291;SHT30;51893;59.754;10.110;2023-03-14T03:33:50;-1.97;81.03
65291;SHT30;51893;59.754;10.110;2023-03-14T03:36:20;-1.97;80.93
65291;SHT30;51893;59.754;10.110;2023-03-14T03:38:52;-1.98;80.92
65291;SHT30;51893;59.754;10.110;2023-03-14T03:41:21;-1.99;80.98
65291;SHT30;51893;59.754;10.110;2023-03-14T03:43:49;-2.08;81.03
65291;SHT30;51893;59.754;10.110;2023-03-14T03:46:18;-2.17;81.29
65291;SHT30;51893;59.754;10.110;2023-03-14T03:48:46;-2.17;81.39
65291;SHT30;51893;59.754;10.110;2023-03-14T03:51:15;-2.17;81.43
65291;SHT30;51893;59.754;10.110;2023-03-14T03:53:43;-2.14;81.49
65291;SHT30;51893;59.754;10.110;2023-03-14T03:56:12;-2.12;81.45
65291;SHT30;51893;59.754;10.110;2023-03-14T03:58:40;-2.12;81.50
65291;SHT30;51893;59.754;10.110;2023-03-14T04:01:09;-2.18;81.53
65291;SHT30;51893;59.754;10.110;2023-03-14T04:03:39;-2.27;81.79
65291;SHT30;51893;59.754;10.110;2023-03-14T04:06:09;-2.33;82.08
65291;SHT30;51893;59.754;10.110;2023-03-14T04:08:40;-2.33;82.14
65291;SHT30;51893;59.754;10.110;2023-03-14T04:11:08;-2.26;82.15
65291;SHT30;51893;59.754;10.110;2023-03-14T04:13:37;-2.20;82.00
65291;SHT30;51893;59.754;10.110;2023-03-14T04:16:09;-2.15;81.85
65291;SHT30;51893;59.754;10.110;2023-03-14T04:18:46;-2.15;81.83
65291;SHT30;51893;59.754;10.110;2023-03-14T04:21:15;-2.16;81.89
65291;SHT30;51893;59.754;10.110;2023-03-14T04:23:43;-2.17;81.90
65291;SHT30;51893;59.754;10.110;2023-03-14T04:26:12;-2.16;81.87
65291;SHT30;51893;59.754;10.110;2023-03-14T04:28:42;-2.13;81.73
65291;SHT30;51893;59.754;10.110;2023-03-14T04:31:11;-2.13;81.64
65291;SHT30;51893;59.754;10.110;2023-03-14T04:33:45;-2.10;81.49
65291;SHT30;51893;59.754;10.110;2023-03-14T04:36:13;-2.10;81.43
65291;SHT30;51893;59.754;10.110;2023-03-14T04:38:41;-2.12;81.37
65291;SHT30;51893;59.754;10.110;2023-03-14T04:41:10;-2.14;81.46
65291;SHT30;51893;59.754;10.110;2023-03-14T04:43:37;-2.12;81.53
65291;SHT30;51893;59.754;10.110;2023-03-14T04:46:06;-2.08;81.56
65291;SHT30;51893;59.754;10.110;2023-03-14T04:48:34;-2.08;81.49
65291;SHT30;51893;59.754;10.110;2023-03-14T04:51:04;-2.07;81.54
65291;SHT30;51893;59.754;10.110;2023-03-14T04:53:34;-2.01;81.57
65291;SHT30;51893;59.754;10.110;2023-03-14T04:56:04;-1.91;81.48
65291;SHT30;51893;59.754;10.110;2023-03-14T04:58:33;-1.88;81.33
65291;SHT30;51893;59.754;10.110;2023-03-14T05:01:05;-1.86;81.24
65291;SHT30;51893;59.754;10.110;2023-03-14T05:03:33;-1.86;81.25
65291;SHT30;51893;59.754;10.110;2023-03-14T05:06:04;-1.82;81.15
65291;SHT30;51893;59.754;10.110;2023-03-14T05:08:33;-1.80;81.10
65291;SHT30;51893;59.754;10.110;2023-03-14T05:11:01;-1.79;81.03
65291;SHT30;51893;59.754;10.110;2023-03-14T05:13:30;-1.83;80.99
65291;SHT30;51893;59.754;10.110;2023-03-14T05:16:05;-1.87;80.92
65291;SHT30;51893;59.754;10.110;2023-03-14T05:18:38;-1.86;80.96
65291;SHT30;51893;59.754;10.110;2023-03-14T05:21:06;-1.88;80.90
65291;SHT30;51893;59.754;10.110;2023-03-14T05:23:35;-1.88;80.89
65291;SHT30;51893;59.754;10.110;2023-03-14T05:26:04;-1.88;80.84
65291;SHT30;51893;59.754;10.110;2023-03-14T05:28:32;-1.90;80.82
65291;SHT30;51893;59.754;10.110;2023-03-14T05:31:00;-1.92;80.89
65291;SHT30;51893;59.754;10.110;2023-03-14T05:33:29;-1.93;80.93
65291;SHT30;51893;59.754;10.110;2023-03-14T05:35:57;-1.85;81.46
65291;SHT30;51893;59.754;10.110;2023-03-14T05:38:27;-1.85;81.25
65291;SHT30;51893;59.754;10.110;2023-03-14T05:40:56;-1.84;81.29
65291;SHT30;51893;59.754;10.110;2023-03-14T05:43:24;-1.79;81.48
65291;SHT30;51893;59.754;10.110;2023-03-14T05:45:53;-1.79;81.42
65291;SHT30;51893;59.754;10.110;2023-03-14T05:48:23;-1.78;81.34
65291;SHT30;51893;59.754;10.110;2023-03-14T05:50:54;-1.81;81.18
65291;SHT30;51893;59.754;10.110;2023-03-14T05:53:26;-1.87;81.09
65291;SHT30;51893;59.754;10.110;2023-03-14T05:55:56;-1.89;81.17
65291;SHT30;51893;59.754;10.110;2023-03-14T05:58:25;-1.87;81.20
65291;SHT30;51893;59.754;10.110;2023-03-14T06:00:54;-1.83;81.12
65291;SHT30;51893;59.754;10.110;2023-03-14T06:03:24;-1.80;81.32
65291;SHT30;51893;59.754;10.110;2023-03-14T06:05:53;-1.81;81.13
65291;SHT30;51893;59.754;10.110;2023-03-14T06:08:22;-1.84;81.12
65291;SHT30;51893;59.754;10.110;2023-03-14T06:10:51;-1.83;81.10
65291;SHT30;51893;59.754;10.110;2023-03-14T06:13:19;-1.77;81.00
65291;SHT30;51893;59.754;10.110;2023-03-14T06:15:48;-1.71;80.81
65291;SHT30;51893;59.754;10.110;2023-03-14T06:18:16;-1.68;80.70
65291;SHT30;51893;59.754;10.110;2023-03-14T06:20:44;-1.63;80.68
65291;SHT30;51893;59.754;10.110;2023-03-14T06:23:13;-1.64;80.51
65291;SHT30;51893;59.754;10.110;2023-03-14T06:25:41;-1.66;80.56
65291;SHT30;51893;59.754;10.110;2023-03-14T06:28:08;-1.69;80.71
65291;SHT30;51893;59.754;10.110;2023-03-14T06:30:36;-1.63;80.73
65291;SHT30;51893;59.754;10.110;2023-03-14T06:33:04;-1.61;80.64
65291;SHT30;51893;59.754;10.110;2023-03-14T06:35:32;-1.65;80.52
65291;SHT30;51893;59.754;10.110;2023-03-14T06:38:03;-1.72;80.53
65291;SHT30;51893;59.754;10.110;2023-03-14T06:40:33;-1.77;80.70
65291;SHT30;51893;59.754;10.110;2023-03-14T06:43:01;-1.81;80.72
65291;SHT30;51893;59.754;10.110;2023-03-14T06:45:31;-1.79;80.83
65291;SHT30;51893;59.754;10.110;2023-03-14T06:48:00;-1.72;80.90
65291;SHT30;51893;59.754;10.110;2023-03-14T06:50:29;-1.61;80.81
65291;SHT30;51893;59.754;10.110;2023-03-14T06:52:57;-1.56;80.71
65291;SHT30;51893;59.754;10.110;2023-03-14T06:55:25;-1.52;80.65
65291;SHT30;51893;59.754;10.110;2023-03-14T06:57:53;-1.51;80.60
65291;SHT30;51893;59.754;10.110;2023-03-14T07:00:23;-1.52;80.68
65291;SHT30;51893;59.754;10.110;2023-03-14T07:02:53;-1.54;80.66
65291;SHT30;51893;59.754;10.110;2023-03-14T07:05:23;-1.61;80.50
65291;SHT30;51893;59.754;10.110;2023-03-14T07:07:51;-1.63;80.62
65291;SHT30;51893;59.754;10.110;2023-03-14T07:10:19;-1.64;80.60
65291;SHT30;51893;59.754;10.110;2023-03-14T07:12:50;-1.62;80.59
65291;SHT30;51893;59.754;10.110;2023-03-14T07:15:21;-1.62;80.57
65291;SHT30;51893;59.754;10.110;2023-03-14T07:17:49;-1.60;80.52
65291;SHT30;51893;59.754;10.110;2023-03-14T07:20:18;-1.59;80.47
65291;SHT30;51893;59.754;10.110;2023-03-14T07:22:49;-1.59;80.41
65291;SHT30;51893;59.754;10.110;2023-03-14T07:25:18;-1.55;80.45
65291;SHT30;51893;59.754;10.110;2023-03-14T07:27:46;-1.48;80.39
65291;SHT30;51893;59.754;10.110;2023-03-14T07:30:17;-1.44;80.26
65291;SHT30;51893;59.754;10.110;2023-03-14T07:32:45;-1.43;80.14
65291;SHT30;51893;59.754;10.110;2023-03-14T07:35:13;-1.41;80.09
65291;SHT30;51893;59.754;10.110;2023-03-14T07:37:42;-1.33;80.20
65291;SHT30;51893;59.754;10.110;2023-03-14T07:40:10;-1.32;79.93
65291;SHT30;51893;59.754;10.110;2023-03-14T07:42:42;-1.36;79.82
65291;SHT30;51893;59.754;10.110;2023-03-14T07:45:10;-1.34;79.84
65291;SHT30;51893;59.754;10.110;2023-03-14T07:47:40;-1.32;79.75
65291;SHT30;51893;59.754;10.110;2023-03-14T07:50:09;-1.31;79.71
65291;SHT30;51893;59.754;10.110;2023-03-14T07:52:37;-1.26;79.61
65291;SHT30;51893;59.754;10.110;2023-03-14T07:55:05;-1.14;79.67
65291;SHT30;51893;59.754;10.110;2023-03-14T07:57:34;-1.04;79.56
65291;SHT30;51893;59.754;10.110;2023-03-14T08:00:02;-0.98;79.37
65291;SHT30;51893;59.754;10.110;2023-03-14T08:02:33;-0.99;79.14
65291;SHT30;51893;59.754;10.110;2023-03-14T08:05:02;-0.98;79.12
65291;SHT30;51893;59.754;10.110;2023-03-14T08:07:32;-1.06;79.06
65291;SHT30;51893;59.754;10.110;2023-03-14T08:10:02;-1.10;79.24
65291;SHT30;51893;59.754;10.110;2023-03-14T08:12:31;-1.11;79.34
65291;SHT30;51893;59.754;10.110;2023-03-14T08:14:59;-1.02;79.30
65291;SHT30;51893;59.754;10.110;2023-03-14T08:17:27;-0.97;79.07
65291;SHT30;51893;59.754;10.110;2023-03-14T08:19:57;-0.94;79.02
65291;SHT30;51893;59.754;10.110;2023-03-14T08:22:25;-0.93;78.94
65291;SHT30;51893;59.754;10.110;2023-03-14T08:24:54;-0.85;78.95
65291;SHT30;51893;59.754;10.110;2023-03-14T08:27:22;-0.75;78.80
65291;SHT30;51893;59.754;10.110;2023-03-14T08:29:50;-0.64;78.78
65291;SHT30;51893;59.754;10.110;2023-03-14T08:32:19;-0.60;78.65
65291;SHT30;51893;59.754;10.110;2023-03-14T08:34:49;-0.57;78.75
65291;SHT30;51893;59.754;10.110;2023-03-14T08:37:17;-0.52;78.74
65291;SHT30;51893;59.754;10.110;2023-03-14T08:39:53;-0.50;78.80
65291;SHT30;51893;59.754;10.110;2023-03-14T08:42:22;-0.50;78.69
65291;SHT30;51893;59.754;10.110;2023-03-14T08:44:51;-0.53;78.61
65291;SHT30;51893;59.754;10.110;2023-03-14T08:47:20;-0.56;78.77
65291;SHT30;51893;59.754;10.110;2023-03-14T08:49:48;-0.56;78.78
65291;SHT30;51893;59.754;10.110;2023-03-14T08:52:18;-0.55;78.78
65291;SHT30;51893;59.754;10.110;2023-03-14T08:54:45;-0.50;78.78
65291;SHT30;51893;59.754;10.110;2023-03-14T08:57:16;-0.49;78.92
65291;SHT30;51893;59.754;10.110;2023-03-14T08:59:44;-0.44;79.09
65291;SHT30;51893;59.754;10.110;2023-03-14T09:02:12;-0.40;79.33
65291;SHT30;51893;59.754;10.110;2023-03-14T09:04:40;-0.36;79.42
65291;SHT30;51893;59.754;10.110;2023-03-14T09:07:08;-0.35;79.82
65291;SHT30;51893;59.754;10.110;2023-03-14T09:09:38;-0.34;79.88
65291;SHT30;51893;59.754;10.110;2023-03-14T09:12:09;-0.34;79.97
65291;SHT30;51893;59.754;10.110;2023-03-14T09:14:38;-0.30;79.96
65291;SHT30;51893;59.754;10.110;2023-03-14T09:17:06;-0.23;79.91
65291;SHT30;51893;59.754;10.110;2023-03-14T09:19:34;-0.21;80.00
65291;SHT30;51893;59.754;10.110;2023-03-14T09:22:04;-0.10;80.05
65291;SHT30;51893;59.754;10.110;2023-03-14T09:24:32;-0.04;80.11
65291;SHT30;51893;59.754;10.110;2023-03-14T09:27:03;0.01;80.29
65291;SHT30;51893;59.754;10.110;2023-03-14T09:29:31;0.08;80.17
65291;SHT30;51893;59.754;10.110;2023-03-14T09:31:58;0.12;80.09
65291;SHT30;51893;59.754;10.110;2023-03-14T09:34:27;0.14;80.07
65291;SHT30;51893;59.754;10.110;2023-03-14T09:36:56;0.12;79.91
65291;SHT30;51893;59.754;10.110;2023-03-14T09:39:24;0.16;79.96
65291;SHT30;51893;59.754;10.110;2023-03-14T09:41:52;0.21;80.00
65291;SHT30;51893;59.754;10.110;2023-03-14T09:44:31;0.26;80.12
65291;SHT30;51893;59.754;10.110;2023-03-14T09:47:07;0.35;80.15
65291;SHT30;51893;59.754;10.110;2023-03-14T09:49:40;0.46;80.08
65291;SHT30;51893;59.754;10.110;2023-03-14T09:55:00;0.77;79.69
65291;SHT30;51893;59.754;10.110;2023-03-14T09:57:43;0.91;79.35
65291;SHT30;51893;59.754;10.110;2023-03-14T10:00:16;0.99;79.08
65291;SHT30;51893;59.754;10.110;2023-03-14T10:05:41;1.13;78.87
65291;SHT30;51893;59.754;10.110;2023-03-14T10:08:10;1.17;78.56
65291;SHT30;51893;59.754;10.110;2023-03-14T10:10:40;1.09;78.50
65291;SHT30;51893;59.754;10.110;2023-03-14T10:13:21;1.05;78.57
65291;SHT30;51893;59.754;10.110;2023-03-14T10:15:59;1.06;78.50
65291;SHT30;51893;59.754;10.110;2023-03-14T10:18:30;1.08;78.40
65291;SHT30;51893;59.754;10.110;2023-03-14T10:21:28;1.06;78.24
65291;SHT30;51893;59.754;10.110;2023-03-14T10:24:16;0.99;78.26
65291;SHT30;51893;59.754;10.110;2023-03-14T10:26:49;1.03;78.24
65291;SHT30;51893;59.754;10.110;2023-03-14T10:29:21;1.07;78.09
65291;SHT30;51893;59.754;10.110;2023-03-14T10:34:45;1.35;77.99
65291;SHT30;51893;59.754;10.110;2023-03-14T10:37:48;1.40;77.64
65291;SHT30;51893;59.754;10.110;2023-03-14T10:40:33;1.53;77.53
65291;SHT30;51893;59.754;10.110;2023-03-14T10:43:07;1.64;77.15
65291;SHT30;51893;59.754;10.110;2023-03-14T10:46:08;1.75;76.81
65291;SHT30;51893;59.754;10.110;2023-03-14T10:48:43;1.91;76.36
65291;SHT30;51893;59.754;10.110;2023-03-14T10:53:47;2.10;75.79
65291;SHT30;51893;59.754;10.110;2023-03-14T10:56:57;2.19;75.36
65291;SHT30;51893;59.754;10.110;2023-03-14T10:59:37;2.29;74.96
65291;SHT30;51893;59.754;10.110;2023-03-14T11:08:11;2.56;73.89
65291;SHT30;51893;59.754;10.110;2023-03-14T11:10:53;2.63;73.90
65291;SHT30;51893;59.754;10.110;2023-03-14T11:13:48;2.78;73.93
65291;SHT30;51893;59.754;10.110;2023-03-14T11:19:32;2.90;72.45
65291;SHT30;51893;59.754;10.110;2023-03-14T11:23:07;3.04;72.47
65291;SHT30;51893;59.754;10.110;2023-03-14T11:25:56;3.04;72.41
65291;SHT30;51893;59.754;10.110;2023-03-14T11:28:39;3.12;72.12
65291;SHT30;51893;59.754;10.110;2023-03-14T11:31:28;3.23;72.38
65291;SHT30;51893;59.754;10.110;2023-03-14T11:34:36;3.43;72.21
65291;SHT30;51893;59.754;10.110;2023-03-14T11:40:10;3.47;69.13
65291;SHT30;51893;59.754;10.110;2023-03-14T11:42:54;3.53;70.76
65291;SHT30;51893;59.754;10.110;2023-03-14T11:45:38;3.49;70.49
65291;SHT30;51893;59.754;10.110;2023-03-14T11:50:46;3.45;69.54
65291;SHT30;51893;59.754;10.110;2023-03-14T11:53:36;3.32;69.19
65291;SHT30;51893;59.754;10.110;2023-03-14T11:56:39;3.23;69.43
65291;SHT30;51893;59.754;10.110;2023-03-14T11:59:23;3.17;69.62
65291;SHT30;51893;59.754;10.110;2023-03-14T12:08:22;3.17;70.14
65291;SHT30;51893;59.754;10.110;2023-03-14T12:11:22;3.34;69.79
65291;SHT30;51893;59.754;10.110;2023-03-14T12:13:59;3.45;69.35
65291;SHT30;51893;59.754;10.110;2023-03-14T12:16:33;3.53;68.86
65291;SHT30;51893;59.754;10.110;2023-03-14T12:21:52;3.98;67.20
65291;SHT30;51893;59.754;10.110;2023-03-14T12:24:29;4.08;66.25
65291;SHT30;51893;59.754;10.110;2023-03-14T12:27:01;4.16;65.28
65291;SHT30;51893;59.754;10.110;2023-03-14T12:29:34;4.26;65.26
65291;SHT30;51893;59.754;10.110;2023-03-14T12:32:30;4.34;64.98
65291;SHT30;51893;59.754;10.110;2023-03-14T12:35:06;4.49;65.28
65291;SHT30;51893;59.754;10.110;2023-03-14T12:38:07;4.67;64.41
65291;SHT30;51893;59.754;10.110;2023-03-14T12:40:57;4.66;63.37
65291;SHT30;51893;59.754;10.110;2023-03-14T12:43:31;4.75;63.66
65291;SHT30;51893;59.754;10.110;2023-03-14T12:46:15;4.87;62.95
65291;SHT30;51893;59.754;10.110;2023-03-14T12:48:55;4.87;61.20
65291;SHT30;51893;59.754;10.110;2023-03-14T12:51:40;4.83;61.47
65291;SHT30;51893;59.754;10.110;2023-03-14T13:00:22;4.93;61.91
65291;SHT30;51893;59.754;10.110;2023-03-14T13:03:13;4.96;61.80
65291;SHT30;51893;59.754;10.110;2023-03-14T13:05:53;4.93;61.85
65291;SHT30;51893;59.754;10.110;2023-03-14T13:08:39;4.94;62.40
65291;SHT30;51893;59.754;10.110;2023-03-14T13:13:51;4.72;63.23
65291;SHT30;51893;59.754;10.110;2023-03-14T13:16:25;4.71;63.19
65291;SHT30;51893;59.754;10.110;2023-03-14T13:19:13;4.63;63.13
65291;SHT30;51893;59.754;10.110;2023-03-14T13:21:51;4.54;63.30
65291;SHT30;51893;59.754;10.110;2023-03-14T13:24:33;4.56;63.14
65291;SHT30;51893;59.754;10.110;2023-03-14T13:27:02;4.60;62.75
65291;SHT30;51893;59.754;10.110;2023-03-14T13:29:31;4.55;62.25
65291;SHT30;51893;59.754;10.110;2023-03-14T13:32:01;4.51;62.20
65291;SHT30;51893;59.754;10.110;2023-03-14T13:34:46;4.38;61.90
65291;SHT30;51893;59.754;10.110;2023-03-14T13:37:19;4.29;62.58
65291;SHT30;51893;59.754;10.110;2023-03-14T13:39:56;4.21;62.24
65291;SHT30;51893;59.754;10.110;2023-03-14T13:42:27;4.12;62.22
65291;SHT30;51893;59.754;10.110;2023-03-14T13:44:56;4.09;62.75
65291;SHT30;51893;59.754;10.110;2023-03-14T13:47:25;4.09;62.64
65291;SHT30;51893;59.754;10.110;2023-03-14T13:49:55;4.09;62.27
65291;SHT30;51893;59.754;10.110;2023-03-14T13:52:30;4.08;62.40
65291;SHT30;51893;59.754;10.110;2023-03-14T13:55:06;4.08;62.49
65291;SHT30;51893;59.754;10.110;2023-03-14T13:57:48;4.06;62.03
65291;SHT30;51893;59.754;10.110;2023-03-14T14:00:24;4.01;61.84
65291;SHT30;51893;59.754;10.110;2023-03-14T14:02:55;3.95;61.64
65291;SHT30;51893;59.754;10.110;2023-03-14T14:05:28;3.92;61.54
65291;SHT30;51893;59.754;10.110;2023-03-14T14:07:59;3.91;61.76
65291;SHT30;51893;59.754;10.110;2023-03-14T14:10:31;3.88;61.61
65291;SHT30;51893;59.754;10.110;2023-03-14T14:13:03;3.85;61.81
65291;SHT30;51893;59.754;10.110;2023-03-14T14:15:39;3.81;62.26
65291;SHT30;51893;59.754;10.110;2023-03-14T14:18:12;3.77;63.11
65291;SHT30;51893;59.754;10.110;2023-03-14T14:20:51;3.74;63.92
65291;SHT30;51893;59.754;10.110;2023-03-14T14:23:20;3.74;64.54
65291;SHT30;51893;59.754;10.110;2023-03-14T14:26:04;3.72;64.59
65291;SHT30;51893;59.754;10.110;2023-03-14T14:28:36;3.70;64.74
65291;SHT30;51893;59.754;10.110;2023-03-14T14:33:44;3.70;64.64
65291;SHT30;51893;59.754;10.110;2023-03-14T14:36:27;3.71;64.61
65291;SHT30;51893;59.754;10.110;2023-03-14T14:41:49;3.74;64.39
65291;SHT30;51893;59.754;10.110;2023-03-14T14:44:33;3.74;64.58
65291;SHT30;51893;59.754;10.110;2023-03-14T14:47:03;3.75;64.75
65291;SHT30;51893;59.754;10.110;2023-03-14T14:49:33;3.76;64.73
65291;SHT30;51893;59.754;10.110;2023-03-14T14:52:04;3.76;64.88
65291;SHT30;51893;59.754;10.110;2023-03-14T14:57:50;3.80;65.94
65291;SHT30;51893;59.754;10.110;2023-03-14T15:00:26;3.77;66.77
65291;SHT30;51893;59.754;10.110;2023-03-14T15:02:58;3.73;66.98
65291;SHT30;51893;59.754;10.110;2023-03-14T15:05:30;3.65;67.31
65291;SHT30;51893;59.754;10.110;2023-03-14T15:08:07;3.63;67.06
65291;SHT30;51893;59.754;10.110;2023-03-14T15:10:38;3.61;66.69
65291;SHT30;51893;59.754;10.110;2023-03-14T15:13:07;3.61;66.63
65291;SHT30;51893;59.754;10.110;2023-03-14T15:15:35;3.60;66.61
65291;SHT30;51893;59.754;10.110;2023-03-14T15:18:12;3.61;66.55
65291;SHT30;51893;59.754;10.110;2023-03-14T15:20:46;3.60;66.59
65291;SHT30;51893;59.754;10.110;2023-03-14T15:23:15;3.56;66.41
65291;SHT30;51893;59.754;10.110;2023-03-14T15:25:45;3.49;66.03
65291;SHT30;51893;59.754;10.110;2023-03-14T15:28:24;3.45;65.93
65291;SHT30;51893;59.754;10.110;2023-03-14T15:30:58;3.51;62.41
65291;SHT30;51893;59.754;10.110;2023-03-14T15:33:27;3.61;56.00
65291;SHT30;51893;59.754;10.110;2023-03-14T15:35:56;3.65;52.51
65291;SHT30;51893;59.754;10.110;2023-03-14T15:38:24;3.66;52.11
65291;SHT30;51893;59.754;10.110;2023-03-14T15:40:54;3.64;51.95
65291;SHT30;51893;59.754;10.110;2023-03-14T15:43:24;3.66;51.34
65291;SHT30;51893;59.754;10.110;2023-03-14T15:45:52;3.68;52.06
65291;SHT30;51893;59.754;10.110;2023-03-14T15:48:21;3.67;52.18
65291;SHT30;51893;59.754;10.110;2023-03-14T15:50:50;3.65;53.10
65291;SHT30;51893;59.754;10.110;2023-03-14T15:53:18;3.59;53.48
65291;SHT30;51893;59.754;10.110;2023-03-14T15:55:47;3.54;53.37
65291;SHT30;51893;59.754;10.110;2023-03-14T15:58:16;3.44;53.20
65291;SHT30;51893;59.754;10.110;2023-03-14T16:00:49;3.33;52.75
65291;SHT30;51893;59.754;10.110;2023-03-14T16:03:17;3.23;52.75
65291;SHT30;51893;59.754;10.110;2023-03-14T16:05:46;3.14;51.80
65291;SHT30;51893;59.754;10.110;2023-03-14T16:08:14;3.07;52.31
65291;SHT30;51893;59.754;10.110;2023-03-14T16:10:44;2.97;52.81
65291;SHT30;51893;59.754;10.110;2023-03-14T16:13:15;2.89;52.55
65291;SHT30;51893;59.754;10.110;2023-03-14T16:15:59;2.82;52.06
65291;SHT30;51893;59.754;10.110;2023-03-14T16:18:31;2.80;52.83
65291;SHT30;51893;59.754;10.110;2023-03-14T16:21:06;2.73;53.12
65291;SHT30;51893;59.754;10.110;2023-03-14T16:23:40;2.65;52.92
65291;SHT30;51893;59.754;10.110;2023-03-14T16:26:11;2.58;53.64
65291;SHT30;51893;59.754;10.110;2023-03-14T16:28:43;2.52;53.37
65291;SHT30;51893;59.754;10.110;2023-03-14T16:31:14;2.47;53.27
65291;SHT30;51893;59.754;10.110;2023-03-14T16:33:47;2.44;53.55
65291;SHT30;51893;59.754;10.110;2023-03-14T16:36:17;2.39;53.26
65291;SHT30;51893;59.754;10.110;2023-03-14T16:38:48;2.39;53.47
65291;SHT30;51893;59.754;10.110;2023-03-14T16:41:17;2.36;53.53
65291;SHT30;51893;59.754;10.110;2023-03-14T16:43:48;2.34;53.97
65291;SHT30;51893;59.754;10.110;2023-03-14T16:46:23;2.28;54.51